In Rescue
 
Open Full Screen Window  High Contrast Mode
Wind Gusting 00 knots
05
April 19, 2021 9:11 PM CDT
Weather Information
Wind Direction
  310 °
Wind Speed
  05 kt (6 mph)
Wind Gust
  00 kt (0 mph)
Altimeter
30.05 in
Visibility
10 SM
Temperature
02° C
36° F
Dewpoint
-03° C
27° F
Humidity
70%
1hr Rain Fall
00.00 in.
24hr Rain Fall
00.01 in.
Sky Condition
Overcast @ 6,500 ft
Scattered @ 5,500 ft
Scattered @ 4,100 ft
VFR

METAR KONA 200211Z AUTO 31005KT 10SM SCT041 SCT055 OVC065 02/M03 A3005 RMK AO2

FAA Disclaimer: The data displayed is for advisory purposes only and is not to be used for flight planning or operations.